Clifton, New Jersey
Current Conditions -  °F | °C
As of 5:51 PM on Saturday 20 Dec 2014 (Local Time) from KTEB Reporting Station
Overcast Overcast  
Wind Chill: -2°   Ceiling: 3200
Heat Index:   Visibility: 10mi
Dew Point: -7°   Wind: 5mph
Humidity: 59%   Direction: 360°N
Pressure: 30.28"   Gusts: NA
Location:  40.87°N, 74.16°W
Report Text: KTEB 202251Z 36004KT 10SM OVC032 01/M07 A3028 RMK AO2 SLP254 T00061067
Loading
Personal Weather Stations






























Interactive Weather Map New forecast layout! Learn more

10-Day Weather Forecast

Advertisements
Track Severe Weather on mobile